sensor_id;sensor_type;location;lat;lon;timestamp;P1;durP1;ratioP1;P2;durP2;ratioP2
13439;SDS011;6792;57.698;11.946;2023-06-14T00:02:24;4.92;;;2.58;;
13439;SDS011;6792;57.698;11.946;2023-06-14T00:04:54;2.83;;;2.30;;
13439;SDS011;6792;57.698;11.946;2023-06-14T00:07:33;4.33;;;2.12;;
13439;SDS011;6792;57.698;11.946;2023-06-14T00:10:02;2.80;;;2.20;;
13439;SDS011;6792;57.698;11.946;2023-06-14T00:12:32;2.72;;;2.33;;
13439;SDS011;6792;57.698;11.946;2023-06-14T00:15:03;3.52;;;2.20;;
13439;SDS011;6792;57.698;11.946;2023-06-14T00:17:36;6.70;;;3.65;;
13439;SDS011;6792;57.698;11.946;2023-06-14T00:20:06;2.45;;;1.98;;
13439;SDS011;6792;57.698;11.946;2023-06-14T00:22:37;5.65;;;2.52;;
13439;SDS011;6792;57.698;11.946;2023-06-14T00:25:07;4.03;;;2.80;;
13439;SDS011;6792;57.698;11.946;2023-06-14T00:27:36;6.87;;;2.45;;
13439;SDS011;6792;57.698;11.946;2023-06-14T00:30:06;3.87;;;2.75;;
13439;SDS011;6792;57.698;11.946;2023-06-14T00:32:36;4.03;;;2.52;;
13439;SDS011;6792;57.698;11.946;2023-06-14T00:35:06;2.47;;;2.27;;
13439;SDS011;6792;57.698;11.946;2023-06-14T00:37:36;4.72;;;2.72;;
13439;SDS011;6792;57.698;11.946;2023-06-14T00:40:06;2.72;;;2.52;;
13439;SDS011;6792;57.698;11.946;2023-06-14T00:42:36;2.90;;;2.60;;
13439;SDS011;6792;57.698;11.946;2023-06-14T00:45:06;5.53;;;2.72;;
13439;SDS011;6792;57.698;11.946;2023-06-14T00:47:37;2.90;;;2.60;;
13439;SDS011;6792;57.698;11.946;2023-06-14T00:50:08;3.95;;;2.60;;
13439;SDS011;6792;57.698;11.946;2023-06-14T00:52:42;4.95;;;2.58;;
13439;SDS011;6792;57.698;11.946;2023-06-14T00:55:11;3.50;;;2.50;;
13439;SDS011;6792;57.698;11.946;2023-06-14T00:57:40;9.20;;;2.85;;
13439;SDS011;6792;57.698;11.946;2023-06-14T01:00:11;3.60;;;2.67;;
13439;SDS011;6792;57.698;11.946;2023-06-14T01:02:41;2.67;;;2.47;;
13439;SDS011;6792;57.698;11.946;2023-06-14T01:05:11;4.40;;;2.92;;
13439;SDS011;6792;57.698;11.946;2023-06-14T01:07:49;4.55;;;2.70;;
13439;SDS011;6792;57.698;11.946;2023-06-14T01:10:25;2.58;;;2.37;;
13439;SDS011;6792;57.698;11.946;2023-06-14T01:12:58;8.53;;;3.00;;
13439;SDS011;6792;57.698;11.946;2023-06-14T01:15:32;5.92;;;2.80;;
13439;SDS011;6792;57.698;11.946;2023-06-14T01:18:02;2.83;;;2.35;;
13439;SDS011;6792;57.698;11.946;2023-06-14T01:20:32;4.55;;;2.52;;
13439;SDS011;6792;57.698;11.946;2023-06-14T01:23:04;6.03;;;2.98;;
13439;SDS011;6792;57.698;11.946;2023-06-14T01:25:33;4.25;;;3.35;;
13439;SDS011;6792;57.698;11.946;2023-06-14T01:28:05;9.45;;;3.15;;
13439;SDS011;6792;57.698;11.946;2023-06-14T01:30:37;3.72;;;2.90;;
13439;SDS011;6792;57.698;11.946;2023-06-14T01:33:10;3.22;;;2.87;;
13439;SDS011;6792;57.698;11.946;2023-06-14T01:35:42;3.65;;;2.47;;
13439;SDS011;6792;57.698;11.946;2023-06-14T01:38:15;3.62;;;2.75;;
13439;SDS011;6792;57.698;11.946;2023-06-14T01:40:48;3.65;;;2.75;;
13439;SDS011;6792;57.698;11.946;2023-06-14T01:43:20;3.47;;;2.80;;
13439;SDS011;6792;57.698;11.946;2023-06-14T01:45:54;3.00;;;2.80;;
13439;SDS011;6792;57.698;11.946;2023-06-14T01:48:26;4.92;;;3.70;;
13439;SDS011;6792;57.698;11.946;2023-06-14T01:50:56;9.73;;;3.05;;
13439;SDS011;6792;57.698;11.946;2023-06-14T01:53:25;4.92;;;2.65;;
13439;SDS011;6792;57.698;11.946;2023-06-14T01:55:54;7.87;;;3.00;;
13439;SDS011;6792;57.698;11.946;2023-06-14T01:58:23;3.90;;;3.08;;
13439;SDS011;6792;57.698;11.946;2023-06-14T02:00:52;7.78;;;3.30;;
13439;SDS011;6792;57.698;11.946;2023-06-14T02:03:23;6.00;;;3.35;;
13439;SDS011;6792;57.698;11.946;2023-06-14T02:05:52;3.90;;;3.22;;
13439;SDS011;6792;57.698;11.946;2023-06-14T02:08:22;6.40;;;3.77;;
13439;SDS011;6792;57.698;11.946;2023-06-14T02:10:51;6.33;;;3.60;;
13439;SDS011;6792;57.698;11.946;2023-06-14T02:13:20;4.60;;;3.70;;
13439;SDS011;6792;57.698;11.946;2023-06-14T02:15:49;4.28;;;3.42;;
13439;SDS011;6792;57.698;11.946;2023-06-14T02:18:20;7.08;;;3.87;;
13439;SDS011;6792;57.698;11.946;2023-06-14T02:20:50;6.10;;;3.42;;
13439;SDS011;6792;57.698;11.946;2023-06-14T02:23:19;5.80;;;2.87;;
13439;SDS011;6792;57.698;11.946;2023-06-14T02:25:48;5.83;;;3.67;;
13439;SDS011;6792;57.698;11.946;2023-06-14T02:28:17;4.03;;;3.22;;
13439;SDS011;6792;57.698;11.946;2023-06-14T02:30:47;5.03;;;3.70;;
13439;SDS011;6792;57.698;11.946;2023-06-14T02:33:16;4.55;;;3.70;;
13439;SDS011;6792;57.698;11.946;2023-06-14T02:35:46;4.17;;;3.37;;
13439;SDS011;6792;57.698;11.946;2023-06-14T02:38:16;4.78;;;3.22;;
13439;SDS011;6792;57.698;11.946;2023-06-14T02:40:49;8.25;;;4.05;;
13439;SDS011;6792;57.698;11.946;2023-06-14T02:43:18;5.37;;;3.62;;
13439;SDS011;6792;57.698;11.946;2023-06-14T02:45:47;5.20;;;3.58;;
13439;SDS011;6792;57.698;11.946;2023-06-14T02:48:17;5.97;;;3.65;;
13439;SDS011;6792;57.698;11.946;2023-06-14T02:50:46;3.85;;;3.27;;
13439;SDS011;6792;57.698;11.946;2023-06-14T02:53:15;5.42;;;3.17;;
13439;SDS011;6792;57.698;11.946;2023-06-14T02:55:44;5.35;;;3.35;;
13439;SDS011;6792;57.698;11.946;2023-06-14T02:58:14;3.85;;;3.10;;
13439;SDS011;6792;57.698;11.946;2023-06-14T03:00:44;4.83;;;2.75;;
13439;SDS011;6792;57.698;11.946;2023-06-14T03:03:18;4.62;;;3.37;;
13439;SDS011;6792;57.698;11.946;2023-06-14T03:05:48;3.85;;;3.37;;
13439;SDS011;6792;57.698;11.946;2023-06-14T03:08:18;3.27;;;2.92;;
13439;SDS011;6792;57.698;11.946;2023-06-14T03:10:48;4.00;;;3.08;;
13439;SDS011;6792;57.698;11.946;2023-06-14T03:13:17;8.15;;;3.15;;
13439;SDS011;6792;57.698;11.946;2023-06-14T03:15:47;5.45;;;3.25;;
13439;SDS011;6792;57.698;11.946;2023-06-14T03:18:18;4.05;;;2.98;;
13439;SDS011;6792;57.698;11.946;2023-06-14T03:20:49;6.72;;;3.45;;
13439;SDS011;6792;57.698;11.946;2023-06-14T03:23:18;5.00;;;3.52;;
13439;SDS011;6792;57.698;11.946;2023-06-14T03:25:47;8.15;;;3.45;;
13439;SDS011;6792;57.698;11.946;2023-06-14T03:28:18;4.75;;;3.22;;
13439;SDS011;6792;57.698;11.946;2023-06-14T03:30:47;7.78;;;3.25;;
13439;SDS011;6792;57.698;11.946;2023-06-14T03:33:16;6.08;;;3.62;;
13439;SDS011;6792;57.698;11.946;2023-06-14T03:35:47;5.45;;;3.42;;
13439;SDS011;6792;57.698;11.946;2023-06-14T03:38:17;5.42;;;3.50;;
13439;SDS011;6792;57.698;11.946;2023-06-14T03:40:46;10.75;;;3.72;;
13439;SDS011;6792;57.698;11.946;2023-06-14T03:43:16;4.25;;;3.00;;
13439;SDS011;6792;57.698;11.946;2023-06-14T03:45:49;5.78;;;3.37;;
13439;SDS011;6792;57.698;11.946;2023-06-14T03:48:18;3.77;;;2.80;;
13439;SDS011;6792;57.698;11.946;2023-06-14T03:50:47;7.67;;;3.27;;
13439;SDS011;6792;57.698;11.946;2023-06-14T03:53:17;5.08;;;3.08;;
13439;SDS011;6792;57.698;11.946;2023-06-14T03:55:46;4.28;;;2.92;;
13439;SDS011;6792;57.698;11.946;2023-06-14T03:58:16;4.55;;;3.35;;
13439;SDS011;6792;57.698;11.946;2023-06-14T04:00:47;6.03;;;3.58;;
13439;SDS011;6792;57.698;11.946;2023-06-14T04:03:16;4.97;;;3.37;;
13439;SDS011;6792;57.698;11.946;2023-06-14T04:05:48;3.80;;;2.83;;
13439;SDS011;6792;57.698;11.946;2023-06-14T04:08:19;6.78;;;3.37;;
13439;SDS011;6792;57.698;11.946;2023-06-14T04:10:48;7.45;;;3.15;;
13439;SDS011;6792;57.698;11.946;2023-06-14T04:13:17;5.37;;;2.87;;
13439;SDS011;6792;57.698;11.946;2023-06-14T04:15:47;7.37;;;2.83;;
13439;SDS011;6792;57.698;11.946;2023-06-14T04:18:16;5.87;;;3.72;;
13439;SDS011;6792;57.698;11.946;2023-06-14T04:20:47;4.33;;;2.90;;
13439;SDS011;6792;57.698;11.946;2023-06-14T04:23:16;5.78;;;3.20;;
13439;SDS011;6792;57.698;11.946;2023-06-14T04:25:46;8.25;;;3.42;;
13439;SDS011;6792;57.698;11.946;2023-06-14T04:28:16;4.22;;;2.95;;
13439;SDS011;6792;57.698;11.946;2023-06-14T04:30:49;5.97;;;2.87;;
13439;SDS011;6792;57.698;11.946;2023-06-14T04:33:20;3.40;;;2.70;;
13439;SDS011;6792;57.698;11.946;2023-06-14T04:35:51;4.40;;;3.33;;
13439;SDS011;6792;57.698;11.946;2023-06-14T04:38:22;7.47;;;4.00;;
13439;SDS011;6792;57.698;11.946;2023-06-14T04:40:53;5.25;;;3.00;;
13439;SDS011;6792;57.698;11.946;2023-06-14T04:43:23;9.53;;;3.77;;
13439;SDS011;6792;57.698;11.946;2023-06-14T04:45:54;3.55;;;2.95;;
13439;SDS011;6792;57.698;11.946;2023-06-14T04:48:23;7.72;;;3.17;;
13439;SDS011;6792;57.698;11.946;2023-06-14T04:50:52;10.35;;;3.75;;
13439;SDS011;6792;57.698;11.946;2023-06-14T04:53:21;6.12;;;3.55;;
13439;SDS011;6792;57.698;11.946;2023-06-14T04:55:51;4.87;;;3.30;;
13439;SDS011;6792;57.698;11.946;2023-06-14T04:58:20;4.95;;;3.12;;
13439;SDS011;6792;57.698;11.946;2023-06-14T05:00:49;7.17;;;3.77;;
13439;SDS011;6792;57.698;11.946;2023-06-14T05:03:22;6.60;;;3.42;;
13439;SDS011;6792;57.698;11.946;2023-06-14T05:05:51;7.53;;;3.92;;
13439;SDS011;6792;57.698;11.946;2023-06-14T05:08:21;6.00;;;3.80;;
13439;SDS011;6792;57.698;11.946;2023-06-14T05:10:50;8.20;;;3.58;;
13439;SDS011;6792;57.698;11.946;2023-06-14T05:13:20;6.20;;;3.40;;
13439;SDS011;6792;57.698;11.946;2023-06-14T05:15:49;6.33;;;3.35;;
13439;SDS011;6792;57.698;11.946;2023-06-14T05:18:19;10.82;;;3.62;;
13439;SDS011;6792;57.698;11.946;2023-06-14T05:20:48;4.75;;;3.80;;
13439;SDS011;6792;57.698;11.946;2023-06-14T05:23:18;7.90;;;3.30;;
13439;SDS011;6792;57.698;11.946;2023-06-14T05:25:47;7.97;;;3.62;;
13439;SDS011;6792;57.698;11.946;2023-06-14T05:28:16;6.97;;;3.85;;
13439;SDS011;6792;57.698;11.946;2023-06-14T05:30:45;12.98;;;3.65;;
13439;SDS011;6792;57.698;11.946;2023-06-14T05:33:14;4.78;;;3.65;;
13439;SDS011;6792;57.698;11.946;2023-06-14T05:35:46;12.70;;;3.65;;
13439;SDS011;6792;57.698;11.946;2023-06-14T05:38:15;5.97;;;3.62;;
13439;SDS011;6792;57.698;11.946;2023-06-14T05:40:44;8.68;;;3.70;;
13439;SDS011;6792;57.698;11.946;2023-06-14T05:43:16;6.10;;;3.72;;
13439;SDS011;6792;57.698;11.946;2023-06-14T05:45:46;5.17;;;3.80;;
13439;SDS011;6792;57.698;11.946;2023-06-14T05:48:17;10.00;;;3.65;;
13439;SDS011;6792;57.698;11.946;2023-06-14T05:50:49;7.97;;;3.77;;
13439;SDS011;6792;57.698;11.946;2023-06-14T05:53:18;7.75;;;3.77;;
13439;SDS011;6792;57.698;11.946;2023-06-14T05:55:47;15.80;;;3.42;;
13439;SDS011;6792;57.698;11.946;2023-06-14T05:58:18;4.58;;;3.40;;
13439;SDS011;6792;57.698;11.946;2023-06-14T06:00:47;6.85;;;3.15;;
13439;SDS011;6792;57.698;11.946;2023-06-14T06:03:16;8.48;;;3.52;;
13439;SDS011;6792;57.698;11.946;2023-06-14T06:05:46;14.75;;;4.20;;
13439;SDS011;6792;57.698;11.946;2023-06-14T06:08:15;5.35;;;3.30;;
13439;SDS011;6792;57.698;11.946;2023-06-14T06:10:45;10.75;;;3.58;;
13439;SDS011;6792;57.698;11.946;2023-06-14T06:13:14;8.43;;;3.60;;
13439;SDS011;6792;57.698;11.946;2023-06-14T06:15:46;10.68;;;3.35;;
13439;SDS011;6792;57.698;11.946;2023-06-14T06:18:16;13.08;;;3.85;;
13439;SDS011;6792;57.698;11.946;2023-06-14T06:20:48;10.10;;;3.42;;
13439;SDS011;6792;57.698;11.946;2023-06-14T06:23:17;6.75;;;2.92;;
13439;SDS011;6792;57.698;11.946;2023-06-14T06:25:46;6.95;;;2.75;;
13439;SDS011;6792;57.698;11.946;2023-06-14T06:28:16;6.42;;;3.15;;
13439;SDS011;6792;57.698;11.946;2023-06-14T06:30:45;4.70;;;3.20;;
13439;SDS011;6792;57.698;11.946;2023-06-14T06:33:14;4.62;;;3.05;;
13439;SDS011;6792;57.698;11.946;2023-06-14T06:35:44;7.72;;;3.45;;
13439;SDS011;6792;57.698;11.946;2023-06-14T06:38:14;9.83;;;3.35;;
13439;SDS011;6792;57.698;11.946;2023-06-14T06:40:46;9.90;;;3.33;;
13439;SDS011;6792;57.698;11.946;2023-06-14T06:43:15;11.05;;;3.37;;
13439;SDS011;6792;57.698;11.946;2023-06-14T06:45:45;3.65;;;3.00;;
13439;SDS011;6792;57.698;11.946;2023-06-14T06:48:14;7.10;;;3.20;;
13439;SDS011;6792;57.698;11.946;2023-06-14T06:50:43;7.05;;;3.27;;
13439;SDS011;6792;57.698;11.946;2023-06-14T06:53:12;5.30;;;3.67;;
13439;SDS011;6792;57.698;11.946;2023-06-14T06:55:46;6.90;;;3.40;;
13439;SDS011;6792;57.698;11.946;2023-06-14T06:58:16;9.28;;;3.60;;
13439;SDS011;6792;57.698;11.946;2023-06-14T07:00:46;5.83;;;3.33;;
13439;SDS011;6792;57.698;11.946;2023-06-14T07:03:16;7.15;;;3.37;;
13439;SDS011;6792;57.698;11.946;2023-06-14T07:05:46;9.20;;;3.58;;
13439;SDS011;6792;57.698;11.946;2023-06-14T07:08:16;7.10;;;3.42;;
13439;SDS011;6792;57.698;11.946;2023-06-14T07:10:48;6.08;;;3.50;;
13439;SDS011;6792;57.698;11.946;2023-06-14T07:13:17;7.15;;;3.27;;
13439;SDS011;6792;57.698;11.946;2023-06-14T07:15:46;4.55;;;3.05;;
13439;SDS011;6792;57.698;11.946;2023-06-14T07:18:18;5.42;;;3.22;;
13439;SDS011;6792;57.698;11.946;2023-06-14T07:20:48;8.35;;;3.60;;
13439;SDS011;6792;57.698;11.946;2023-06-14T07:23:20;11.50;;;3.62;;
13439;SDS011;6792;57.698;11.946;2023-06-14T07:25:49;5.05;;;3.20;;
13439;SDS011;6792;57.698;11.946;2023-06-14T07:28:26;5.05;;;2.83;;
13439;SDS011;6792;57.698;11.946;2023-06-14T07:30:58;6.10;;;2.60;;
13439;SDS011;6792;57.698;11.946;2023-06-14T07:33:34;5.10;;;2.62;;
13439;SDS011;6792;57.698;11.946;2023-06-14T07:36:03;6.35;;;2.92;;
13439;SDS011;6792;57.698;11.946;2023-06-14T07:38:33;5.90;;;2.85;;
13439;SDS011;6792;57.698;11.946;2023-06-14T07:41:03;10.98;;;3.27;;
13439;SDS011;6792;57.698;11.946;2023-06-14T07:43:36;5.45;;;2.75;;
13439;SDS011;6792;57.698;11.946;2023-06-14T07:46:06;5.95;;;2.92;;
13439;SDS011;6792;57.698;11.946;2023-06-14T07:48:36;7.00;;;2.90;;
13439;SDS011;6792;57.698;11.946;2023-06-14T07:51:05;12.37;;;3.37;;
13439;SDS011;6792;57.698;11.946;2023-06-14T07:53:34;6.37;;;2.65;;
13439;SDS011;6792;57.698;11.946;2023-06-14T07:56:04;3.55;;;3.20;;
13439;SDS011;6792;57.698;11.946;2023-06-14T07:58:33;7.47;;;2.87;;
13439;SDS011;6792;57.698;11.946;2023-06-14T08:01:02;6.45;;;3.22;;
13439;SDS011;6792;57.698;11.946;2023-06-14T08:03:33;4.35;;;2.70;;
13439;SDS011;6792;57.698;11.946;2023-06-14T08:06:03;5.75;;;2.62;;
13439;SDS011;6792;57.698;11.946;2023-06-14T08:08:32;4.17;;;2.35;;
13439;SDS011;6792;57.698;11.946;2023-06-14T08:11:01;4.08;;;3.00;;
13439;SDS011;6792;57.698;11.946;2023-06-14T08:13:30;3.42;;;2.47;;
13439;SDS011;6792;57.698;11.946;2023-06-14T08:16:00;6.72;;;2.67;;
13439;SDS011;6792;57.698;11.946;2023-06-14T08:18:30;5.12;;;3.00;;
13439;SDS011;6792;57.698;11.946;2023-06-14T08:21:00;3.17;;;2.50;;
13439;SDS011;6792;57.698;11.946;2023-06-14T08:23:30;5.33;;;2.95;;
13439;SDS011;6792;57.698;11.946;2023-06-14T08:25:59;20.17;;;3.10;;
13439;SDS011;6792;57.698;11.946;2023-06-14T08:28:30;6.08;;;2.95;;
13439;SDS011;6792;57.698;11.946;2023-06-14T08:30:59;6.55;;;3.08;;
13439;SDS011;6792;57.698;11.946;2023-06-14T08:33:29;7.58;;;2.90;;
13439;SDS011;6792;57.698;11.946;2023-06-14T08:36:00;7.55;;;2.80;;
13439;SDS011;6792;57.698;11.946;2023-06-14T08:38:29;4.37;;;2.58;;
13439;SDS011;6792;57.698;11.946;2023-06-14T08:40:59;4.03;;;2.52;;
13439;SDS011;6792;57.698;11.946;2023-06-14T08:43:30;8.08;;;3.65;;
13439;SDS011;6792;57.698;11.946;2023-06-14T08:46:00;6.05;;;2.62;;
13439;SDS011;6792;57.698;11.946;2023-06-14T08:48:31;4.72;;;3.15;;
13439;SDS011;6792;57.698;11.946;2023-06-14T08:51:01;7.80;;;3.15;;
13439;SDS011;6792;57.698;11.946;2023-06-14T08:53:31;4.65;;;3.52;;
13439;SDS011;6792;57.698;11.946;2023-06-14T08:56:01;7.80;;;3.30;;
13439;SDS011;6792;57.698;11.946;2023-06-14T08:58:32;7.03;;;3.10;;
13439;SDS011;6792;57.698;11.946;2023-06-14T09:01:02;7.03;;;3.55;;
13439;SDS011;6792;57.698;11.946;2023-06-14T09:03:33;14.15;;;3.67;;
13439;SDS011;6792;57.698;11.946;2023-06-14T09:06:04;8.00;;;3.58;;
13439;SDS011;6792;57.698;11.946;2023-06-14T09:08:35;5.47;;;3.47;;
13439;SDS011;6792;57.698;11.946;2023-06-14T09:11:06;9.58;;;3.08;;
13439;SDS011;6792;57.698;11.946;2023-06-14T09:13:36;10.98;;;3.42;;
13439;SDS011;6792;57.698;11.946;2023-06-14T09:16:06;10.78;;;3.67;;
13439;SDS011;6792;57.698;11.946;2023-06-14T09:18:36;5.47;;;3.27;;
13439;SDS011;6792;57.698;11.946;2023-06-14T09:21:06;8.15;;;3.70;;
13439;SDS011;6792;57.698;11.946;2023-06-14T09:23:36;7.55;;;3.35;;
13439;SDS011;6792;57.698;11.946;2023-06-14T09:26:09;5.10;;;3.20;;
13439;SDS011;6792;57.698;11.946;2023-06-14T09:28:41;9.55;;;3.47;;
13439;SDS011;6792;57.698;11.946;2023-06-14T09:31:14;4.70;;;3.35;;
13439;SDS011;6792;57.698;11.946;2023-06-14T09:33:47;6.95;;;3.62;;
13439;SDS011;6792;57.698;11.946;2023-06-14T09:36:24;5.25;;;3.37;;
13439;SDS011;6792;57.698;11.946;2023-06-14T09:38:56;3.70;;;3.00;;
13439;SDS011;6792;57.698;11.946;2023-06-14T09:41:31;3.55;;;3.00;;
13439;SDS011;6792;57.698;11.946;2023-06-14T09:44:01;4.80;;;3.08;;
13439;SDS011;6792;57.698;11.946;2023-06-14T09:46:31;3.75;;;3.15;;
13439;SDS011;6792;57.698;11.946;2023-06-14T09:49:01;3.15;;;2.75;;
13439;SDS011;6792;57.698;11.946;2023-06-14T09:51:31;3.50;;;3.20;;
13439;SDS011;6792;57.698;11.946;2023-06-14T09:54:02;5.67;;;2.90;;
13439;SDS011;6792;57.698;11.946;2023-06-14T09:56:34;6.45;;;3.20;;
13439;SDS011;6792;57.698;11.946;2023-06-14T09:59:05;4.22;;;3.22;;
13439;SDS011;6792;57.698;11.946;2023-06-14T10:01:41;8.20;;;3.12;;
13439;SDS011;6792;57.698;11.946;2023-06-14T10:04:09;4.65;;;3.02;;
13439;SDS011;6792;57.698;11.946;2023-06-14T10:06:43;8.75;;;3.20;;
13439;SDS011;6792;57.698;11.946;2023-06-14T10:09:13;4.30;;;3.33;;
13439;SDS011;6792;57.698;11.946;2023-06-14T10:11:43;3.00;;;2.80;;
13439;SDS011;6792;57.698;11.946;2023-06-14T10:14:13;3.30;;;2.70;;
13439;SDS011;6792;57.698;11.946;2023-06-14T10:16:45;8.50;;;3.33;;
13439;SDS011;6792;57.698;11.946;2023-06-14T10:19:17;6.08;;;2.70;;
13439;SDS011;6792;57.698;11.946;2023-06-14T10:21:51;2.90;;;2.60;;
13439;SDS011;6792;57.698;11.946;2023-06-14T10:24:26;3.62;;;2.80;;
13439;SDS011;6792;57.698;11.946;2023-06-14T10:26:57;3.80;;;2.87;;
13439;SDS011;6792;57.698;11.946;2023-06-14T10:29:27;4.42;;;2.90;;
13439;SDS011;6792;57.698;11.946;2023-06-14T10:31:58;2.50;;;2.30;;
13439;SDS011;6792;57.698;11.946;2023-06-14T10:34:30;4.33;;;2.20;;
13439;SDS011;6792;57.698;11.946;2023-06-14T10:37:03;3.47;;;2.58;;
13439;SDS011;6792;57.698;11.946;2023-06-14T10:39:38;2.58;;;2.37;;
13439;SDS011;6792;57.698;11.946;2023-06-14T10:45:39;3.17;;;2.87;;
13439;SDS011;6792;57.698;11.946;2023-06-14T10:48:30;2.90;;;2.55;;
13439;SDS011;6792;57.698;11.946;2023-06-14T10:51:00;3.05;;;2.55;;
13439;SDS011;6792;57.698;11.946;2023-06-14T10:53:30;6.10;;;2.67;;
13439;SDS011;6792;57.698;11.946;2023-06-14T10:56:07;5.25;;;2.85;;
13439;SDS011;6792;57.698;11.946;2023-06-14T10:58:37;5.70;;;2.27;;
13439;SDS011;6792;57.698;11.946;2023-06-14T11:01:06;3.37;;;2.40;;
13439;SDS011;6792;57.698;11.946;2023-06-14T11:03:46;3.85;;;2.50;;
13439;SDS011;6792;57.698;11.946;2023-06-14T11:06:21;5.28;;;2.47;;
13439;SDS011;6792;57.698;11.946;2023-06-14T11:12:09;7.30;;;2.30;;
13439;SDS011;6792;57.698;11.946;2023-06-14T11:14:39;4.42;;;2.40;;
13439;SDS011;6792;57.698;11.946;2023-06-14T11:17:08;5.67;;;2.45;;
13439;SDS011;6792;57.698;11.946;2023-06-14T11:19:39;5.33;;;2.60;;
13439;SDS011;6792;57.698;11.946;2023-06-14T11:22:09;8.10;;;2.83;;
13439;SDS011;6792;57.698;11.946;2023-06-14T11:24:38;6.22;;;2.80;;
13439;SDS011;6792;57.698;11.946;2023-06-14T11:27:07;3.95;;;2.67;;
13439;SDS011;6792;57.698;11.946;2023-06-14T11:29:37;6.80;;;3.27;;
13439;SDS011;6792;57.698;11.946;2023-06-14T11:32:08;6.15;;;2.40;;
13439;SDS011;6792;57.698;11.946;2023-06-14T11:34:39;10.45;;;2.72;;
13439;SDS011;6792;57.698;11.946;2023-06-14T11:37:08;5.22;;;2.75;;
13439;SDS011;6792;57.698;11.946;2023-06-14T11:39:38;5.90;;;2.65;;
13439;SDS011;6792;57.698;11.946;2023-06-14T11:42:14;4.83;;;2.20;;
13439;SDS011;6792;57.698;11.946;2023-06-14T11:44:46;2.95;;;2.40;;
13439;SDS011;6792;57.698;11.946;2023-06-14T11:47:16;4.25;;;2.55;;
13439;SDS011;6792;57.698;11.946;2023-06-14T11:49:48;6.37;;;2.20;;
13439;SDS011;6792;57.698;11.946;2023-06-14T11:52:18;4.15;;;2.55;;
13439;SDS011;6792;57.698;11.946;2023-06-14T11:54:48;4.97;;;2.47;;
13439;SDS011;6792;57.698;11.946;2023-06-14T11:57:18;9.90;;;2.87;;
13439;SDS011;6792;57.698;11.946;2023-06-14T11:59:48;7.53;;;2.70;;
13439;SDS011;6792;57.698;11.946;2023-06-14T12:02:18;6.45;;;2.90;;
13439;SDS011;6792;57.698;11.946;2023-06-14T12:04:55;8.53;;;2.60;;
13439;SDS011;6792;57.698;11.946;2023-06-14T12:07:31;3.95;;;2.40;;
13439;SDS011;6792;57.698;11.946;2023-06-14T12:10:15;5.42;;;2.70;;
13439;SDS011;6792;57.698;11.946;2023-06-14T12:16:06;5.60;;;2.30;;
13439;SDS011;6792;57.698;11.946;2023-06-14T12:22:03;2.75;;;2.15;;
13439;SDS011;6792;57.698;11.946;2023-06-14T12:24:47;4.53;;;2.40;;
13439;SDS011;6792;57.698;11.946;2023-06-14T12:27:23;3.00;;;2.33;;
13439;SDS011;6792;57.698;11.946;2023-06-14T12:36:21;3.60;;;2.20;;
13439;SDS011;6792;57.698;11.946;2023-06-14T12:38:51;5.97;;;2.42;;
13439;SDS011;6792;57.698;11.946;2023-06-14T12:41:21;5.70;;;2.40;;
13439;SDS011;6792;57.698;11.946;2023-06-14T12:44:01;6.58;;;2.15;;
13439;SDS011;6792;57.698;11.946;2023-06-14T12:46:51;8.25;;;2.30;;
13439;SDS011;6792;57.698;11.946;2023-06-14T12:49:20;8.58;;;2.45;;
13439;SDS011;6792;57.698;11.946;2023-06-14T12:51:50;5.25;;;2.42;;
13439;SDS011;6792;57.698;11.946;2023-06-14T12:54:20;5.60;;;2.60;;
13439;SDS011;6792;57.698;11.946;2023-06-14T12:56:51;3.92;;;2.60;;
13439;SDS011;6792;57.698;11.946;2023-06-14T12:59:21;2.87;;;2.37;;
13439;SDS011;6792;57.698;11.946;2023-06-14T13:01:50;5.28;;;2.70;;
13439;SDS011;6792;57.698;11.946;2023-06-14T13:04:20;3.75;;;2.58;;
13439;SDS011;6792;57.698;11.946;2023-06-14T13:06:49;5.30;;;2.35;;
13439;SDS011;6792;57.698;11.946;2023-06-14T13:09:19;2.83;;;2.20;;
13439;SDS011;6792;57.698;11.946;2023-06-14T13:11:48;3.47;;;2.22;;
13439;SDS011;6792;57.698;11.946;2023-06-14T13:14:26;4.05;;;2.83;;
13439;SDS011;6792;57.698;11.946;2023-06-14T13:17:13;5.62;;;2.35;;
13439;SDS011;6792;57.698;11.946;2023-06-14T13:19:48;5.20;;;2.25;;
13439;SDS011;6792;57.698;11.946;2023-06-14T13:22:24;5.08;;;2.42;;
13439;SDS011;6792;57.698;11.946;2023-06-14T13:24:54;3.75;;;2.35;;
13439;SDS011;6792;57.698;11.946;2023-06-14T13:27:23;6.83;;;2.40;;
13439;SDS011;6792;57.698;11.946;2023-06-14T13:29:53;4.83;;;2.08;;
13439;SDS011;6792;57.698;11.946;2023-06-14T13:32:23;7.22;;;2.25;;
13439;SDS011;6792;57.698;11.946;2023-06-14T13:34:52;2.42;;;1.80;;
13439;SDS011;6792;57.698;11.946;2023-06-14T13:37:21;5.05;;;2.55;;
13439;SDS011;6792;57.698;11.946;2023-06-14T13:39:50;3.65;;;2.50;;
13439;SDS011;6792;57.698;11.946;2023-06-14T13:42:19;3.85;;;2.20;;
13439;SDS011;6792;57.698;11.946;2023-06-14T13:44:48;2.45;;;2.25;;
13439;SDS011;6792;57.698;11.946;2023-06-14T13:47:19;3.50;;;1.82;;
13439;SDS011;6792;57.698;11.946;2023-06-14T13:52:35;3.62;;;2.52;;
13439;SDS011;6792;57.698;11.946;2023-06-14T13:55:12;2.50;;;2.30;;
13439;SDS011;6792;57.698;11.946;2023-06-14T13:57:52;10.82;;;2.90;;
13439;SDS011;6792;57.698;11.946;2023-06-14T14:00:28;3.15;;;2.58;;
13439;SDS011;6792;57.698;11.946;2023-06-14T14:03:00;7.03;;;2.35;;
13439;SDS011;6792;57.698;11.946;2023-06-14T14:05:50;4.17;;;2.70;;
13439;SDS011;6792;57.698;11.946;2023-06-14T14:11:32;3.10;;;2.55;;
13439;SDS011;6792;57.698;11.946;2023-06-14T14:14:02;2.52;;;2.00;;
13439;SDS011;6792;57.698;11.946;2023-06-14T14:16:33;2.22;;;2.02;;
13439;SDS011;6792;57.698;11.946;2023-06-14T14:21:53;2.30;;;2.10;;
13439;SDS011;6792;57.698;11.946;2023-06-14T14:24:25;2.95;;;2.30;;
13439;SDS011;6792;57.698;11.946;2023-06-14T14:26:57;2.75;;;1.90;;
13439;SDS011;6792;57.698;11.946;2023-06-14T14:29:27;5.80;;;2.10;;
13439;SDS011;6792;57.698;11.946;2023-06-14T14:31:56;2.77;;;2.50;;
13439;SDS011;6792;57.698;11.946;2023-06-14T14:34:25;2.67;;;2.05;;
13439;SDS011;6792;57.698;11.946;2023-06-14T14:36:54;2.00;;;1.80;;
13439;SDS011;6792;57.698;11.946;2023-06-14T14:39:38;2.47;;;2.10;;
13439;SDS011;6792;57.698;11.946;2023-06-14T14:42:48;6.17;;;2.15;;
13439;SDS011;6792;57.698;11.946;2023-06-14T14:48:19;2.85;;;2.22;;
13439;SDS011;6792;57.698;11.946;2023-06-14T14:50:48;3.22;;;2.27;;
13439;SDS011;6792;57.698;11.946;2023-06-14T14:56:19;2.77;;;2.58;;
13439;SDS011;6792;57.698;11.946;2023-06-14T14:58:50;3.40;;;2.30;;
13439;SDS011;6792;57.698;11.946;2023-06-14T15:01:19;5.78;;;2.37;;
13439;SDS011;6792;57.698;11.946;2023-06-14T15:03:48;4.90;;;2.45;;
13439;SDS011;6792;57.698;11.946;2023-06-14T15:06:18;3.37;;;2.35;;
13439;SDS011;6792;57.698;11.946;2023-06-14T15:08:47;8.33;;;2.47;;
13439;SDS011;6792;57.698;11.946;2023-06-14T15:11:17;2.92;;;2.42;;
13439;SDS011;6792;57.698;11.946;2023-06-14T15:13:47;5.15;;;2.75;;
13439;SDS011;6792;57.698;11.946;2023-06-14T15:16:16;6.58;;;2.80;;
13439;SDS011;6792;57.698;11.946;2023-06-14T15:18:48;5.40;;;2.87;;
13439;SDS011;6792;57.698;11.946;2023-06-14T15:21:28;6.47;;;2.90;;
13439;SDS011;6792;57.698;11.946;2023-06-14T15:24:02;10.10;;;2.70;;
13439;SDS011;6792;57.698;11.946;2023-06-14T15:26:49;5.67;;;2.45;;
13439;SDS011;6792;57.698;11.946;2023-06-14T15:29:46;6.53;;;2.62;;
13439;SDS011;6792;57.698;11.946;2023-06-14T15:32:18;3.22;;;2.30;;
13439;SDS011;6792;57.698;11.946;2023-06-14T15:34:57;3.72;;;2.40;;
13439;SDS011;6792;57.698;11.946;2023-06-14T15:37:29;3.20;;;2.27;;
13439;SDS011;6792;57.698;11.946;2023-06-14T15:59:44;4.05;;;2.45;;
13439;SDS011;6792;57.698;11.946;2023-06-14T16:18:21;2.62;;;2.42;;
13439;SDS011;6792;57.698;11.946;2023-06-14T16:20:50;2.65;;;2.08;;
13439;SDS011;6792;57.698;11.946;2023-06-14T16:23:21;6.70;;;3.20;;